createdAt,value
2023-01-17T00:01:39.969Z,3.88
2023-01-17T00:04:27.787Z,3.96
2023-01-17T00:07:16.542Z,4.07
2023-01-17T00:09:59.341Z,4.20
2023-01-17T00:12:30.996Z,4.08
2023-01-17T00:15:00.778Z,4.12
2023-01-17T00:17:40.383Z,4.12
2023-01-17T00:20:35.395Z,4.28
2023-01-17T00:23:28.130Z,3.95
2023-01-17T00:26:09.911Z,4.26
2023-01-17T00:28:40.644Z,4.10
2023-01-17T00:31:11.738Z,4.23
2023-01-17T00:33:56.161Z,4.26
2023-01-17T00:36:24.583Z,4.02
2023-01-17T00:38:52.594Z,4.21
2023-01-17T00:41:23.164Z,4.33
2023-01-17T00:44:12.836Z,3.91
2023-01-17T00:47:03.089Z,3.87
2023-01-17T00:50:01.826Z,4.20
2023-01-17T00:52:50.422Z,4.30
2023-01-17T00:55:41.559Z,4.21
2023-01-17T00:58:32.877Z,4.21
2023-01-17T01:01:30.301Z,4.15
2023-01-17T01:04:20.235Z,4.24
2023-01-17T01:07:11.875Z,4.23
2023-01-17T01:10:02.879Z,4.20
2023-01-17T01:12:52.276Z,4.17
2023-01-17T01:15:39.881Z,4.07
2023-01-17T01:18:29.999Z,4.07
2023-01-17T01:21:22.867Z,3.99
2023-01-17T01:24:19.602Z,4.00
2023-01-17T01:27:06.973Z,4.04
2023-01-17T01:29:57.653Z,4.15
2023-01-17T01:32:44.879Z,4.27
2023-01-17T01:35:20.088Z,4.18
2023-01-17T01:37:50.969Z,4.03
2023-01-17T01:40:33.670Z,4.18
2023-01-17T01:43:07.096Z,4.17
2023-01-17T01:45:41.493Z,4.21
2023-01-17T01:48:56.075Z,4.11
2023-01-17T01:51:30.284Z,4.11
2023-01-17T01:54:03.106Z,3.92
2023-01-17T01:56:39.861Z,3.98
2023-01-17T01:59:13.850Z,3.94
2023-01-17T02:01:44.976Z,3.99
2023-01-17T02:04:20.378Z,4.01
2023-01-17T02:06:52.292Z,4.27
2023-01-17T02:09:21.428Z,4.05
2023-01-17T02:11:52.265Z,4.18
2023-01-17T02:14:24.685Z,4.08
2023-01-17T02:17:07.409Z,4.06
2023-01-17T02:20:24.445Z,4.20
2023-01-17T02:23:32.791Z,3.94
2023-01-17T02:26:50.417Z,3.85
2023-01-17T02:29:56.172Z,4.05
2023-01-17T02:32:51.752Z,4.13
2023-01-17T02:35:32.143Z,3.97
2023-01-17T02:38:10.367Z,3.86
2023-01-17T02:40:43.104Z,3.98
2023-01-17T02:43:16.135Z,4.05
2023-01-17T02:45:45.654Z,3.92
2023-01-17T02:48:21.421Z,3.96
2023-01-17T02:51:25.688Z,3.94
2023-01-17T02:54:07.578Z,4.05
2023-01-17T02:56:49.862Z,3.91
2023-01-17T02:59:33.891Z,3.88
2023-01-17T03:02:11.871Z,4.04
2023-01-17T03:05:07.049Z,3.82
2023-01-17T03:07:42.384Z,3.60
2023-01-17T03:10:20.367Z,3.73
2023-01-17T03:12:48.739Z,3.77
2023-01-17T03:15:27.619Z,3.81
2023-01-17T03:18:03.556Z,3.83
2023-01-17T03:20:38.307Z,3.83
2023-01-17T03:23:19.012Z,3.82
2023-01-17T03:25:50.843Z,3.81
2023-01-17T03:28:19.005Z,3.98
2023-01-17T03:30:50.061Z,3.97
2023-01-17T03:33:23.817Z,3.78
2023-01-17T03:35:58.924Z,3.80
2023-01-17T03:38:30.487Z,3.79
2023-01-17T03:40:58.708Z,3.74
2023-01-17T03:43:36.427Z,3.87
2023-01-17T03:46:07.858Z,3.86
2023-01-17T03:48:42.150Z,3.78
2023-01-17T03:51:21.707Z,3.93
2023-01-17T03:53:55.659Z,3.78
2023-01-17T03:56:27.376Z,3.82
2023-01-17T03:59:00.105Z,3.87
2023-01-17T04:01:31.398Z,3.85
2023-01-17T04:04:03.172Z,3.71
2023-01-17T04:06:33.903Z,3.83
2023-01-17T04:09:02.708Z,3.69
2023-01-17T04:11:32.971Z,3.76
2023-01-17T04:14:09.342Z,3.66
2023-01-17T04:16:46.031Z,3.64
2023-01-17T04:19:18.493Z,3.83
2023-01-17T04:22:04.091Z,3.64
2023-01-17T04:24:37.303Z,3.58
2023-01-17T04:27:08.874Z,3.74
2023-01-17T04:29:46.814Z,3.73
2023-01-17T04:32:26.411Z,3.94
2023-01-17T04:34:57.130Z,3.95
2023-01-17T04:37:28.058Z,3.77
2023-01-17T04:40:00.167Z,3.93
2023-01-17T04:42:29.774Z,3.74
2023-01-17T04:44:58.945Z,3.81
2023-01-17T04:47:33.674Z,3.79
2023-01-17T04:50:12.165Z,3.69
2023-01-17T04:53:00.139Z,3.61
2023-01-17T04:55:38.416Z,3.66
2023-01-17T04:58:09.201Z,3.68
2023-01-17T05:00:39.834Z,3.74
2023-01-17T05:03:14.108Z,3.85
2023-01-17T05:05:45.341Z,3.88
2023-01-17T05:08:22.855Z,3.89
2023-01-17T05:10:54.138Z,3.91
2023-01-17T05:13:23.999Z,3.84
2023-01-17T05:15:55.109Z,3.79
2023-01-17T05:18:29.474Z,3.94
2023-01-17T05:21:08.069Z,3.88
2023-01-17T05:23:51.577Z,4.00
2023-01-17T05:26:23.349Z,4.06
2023-01-17T05:28:55.147Z,4.12
2023-01-17T05:31:26.262Z,4.21
2023-01-17T05:33:58.511Z,4.12
2023-01-17T05:36:32.680Z,3.88
2023-01-17T05:39:06.928Z,3.89
2023-01-17T05:41:35.785Z,4.01
2023-01-17T05:44:05.942Z,3.89
2023-01-17T05:46:35.386Z,3.78
2023-01-17T05:49:19.253Z,3.85
2023-01-17T05:51:56.119Z,3.85
2023-01-17T05:54:35.338Z,3.86
2023-01-17T05:57:03.834Z,3.92
2023-01-17T05:59:37.427Z,3.82
2023-01-17T06:02:05.853Z,3.76
2023-01-17T06:04:39.790Z,3.74
2023-01-17T06:07:13.880Z,3.66
2023-01-17T06:09:49.975Z,3.75
2023-01-17T06:12:22.072Z,3.79
2023-01-17T06:14:56.363Z,3.72
2023-01-17T06:17:27.003Z,3.60
2023-01-17T06:19:59.927Z,3.58
2023-01-17T06:22:36.291Z,3.66
2023-01-17T06:25:18.328Z,3.82
2023-01-17T06:27:47.445Z,3.94
2023-01-17T06:30:27.619Z,3.98
2023-01-17T06:33:04.809Z,3.80
2023-01-17T06:35:42.345Z,3.93
2023-01-17T06:38:16.408Z,3.92
2023-01-17T06:41:00.610Z,3.95
2023-01-17T06:43:36.173Z,3.87
2023-01-17T06:46:08.248Z,3.91
2023-01-17T06:48:36.900Z,3.89
2023-01-17T06:51:06.336Z,3.92
2023-01-17T06:53:37.254Z,3.88
2023-01-17T06:56:21.492Z,4.01
2023-01-17T06:58:51.077Z,3.85
2023-01-17T07:01:23.317Z,4.02
2023-01-17T07:03:54.575Z,4.09
2023-01-17T07:06:28.798Z,4.12
2023-01-17T07:09:01.728Z,4.05
2023-01-17T07:11:45.836Z,4.20
2023-01-17T07:14:26.228Z,4.27
2023-01-17T07:16:57.891Z,4.14
2023-01-17T07:19:32.064Z,4.04
2023-01-17T07:22:01.317Z,4.01
2023-01-17T07:24:30.123Z,4.22
2023-01-17T07:27:15.741Z,4.08
2023-01-17T07:29:46.678Z,4.18
2023-01-17T07:32:18.466Z,4.22
2023-01-17T07:34:48.095Z,4.25
2023-01-17T07:37:20.051Z,4.20
2023-01-17T07:39:57.134Z,4.25
2023-01-17T07:42:32.214Z,4.29
2023-01-17T07:45:05.264Z,4.32
2023-01-17T07:47:35.795Z,4.38
2023-01-17T07:50:06.097Z,4.31
2023-01-17T07:52:35.030Z,4.37
2023-01-17T07:55:12.493Z,4.62
2023-01-17T07:57:44.651Z,4.66
2023-01-17T08:00:21.902Z,4.61
2023-01-17T08:03:00.383Z,4.64
2023-01-17T08:05:31.071Z,4.70
2023-01-17T08:08:10.079Z,4.57
2023-01-17T08:10:40.365Z,4.84
2023-01-17T08:13:17.629Z,4.70
2023-01-17T08:15:50.068Z,4.80
2023-01-17T08:18:22.591Z,4.64
2023-01-17T08:20:54.824Z,4.89
2023-01-17T08:23:23.143Z,4.96
2023-01-17T08:25:55.156Z,5.05
2023-01-17T08:28:27.630Z,5.17
2023-01-17T08:31:02.598Z,5.17
2023-01-17T08:33:44.948Z,5.30
2023-01-17T08:36:14.509Z,5.22
2023-01-17T08:38:46.423Z,5.38
2023-01-17T08:41:22.659Z,5.59
2023-01-17T08:44:06.850Z,5.24
2023-01-17T08:46:35.444Z,5.35
2023-01-17T08:49:03.889Z,5.37
2023-01-17T08:51:35.959Z,5.27
2023-01-17T08:54:13.108Z,5.38
2023-01-17T08:56:45.529Z,5.48
2023-01-17T08:59:21.170Z,5.44
2023-01-17T09:01:52.619Z,5.40
2023-01-17T09:04:24.385Z,5.36
2023-01-17T09:06:57.740Z,5.27
2023-01-17T09:09:27.387Z,5.42
2023-01-17T09:11:56.709Z,5.39
2023-01-17T09:14:33.318Z,5.46
2023-01-17T09:17:05.755Z,5.68
2023-01-17T09:19:39.268Z,5.90
2023-01-17T09:22:10.695Z,5.75
2023-01-17T09:24:39.466Z,5.71
2023-01-17T09:27:09.139Z,5.65
2023-01-17T09:29:44.461Z,5.58
2023-01-17T09:32:19.251Z,5.68
2023-01-17T09:34:50.836Z,5.62
2023-01-17T09:37:29.151Z,5.55
2023-01-17T09:39:59.105Z,5.40
2023-01-17T09:42:36.930Z,5.51
2023-01-17T09:45:14.890Z,5.58
2023-01-17T09:47:45.584Z,5.69
2023-01-17T09:50:32.663Z,5.90
2023-01-17T09:53:11.960Z,5.80
2023-01-17T09:55:54.487Z,5.88
2023-01-17T09:58:27.841Z,5.90
2023-01-17T10:01:06.656Z,5.90
2023-01-17T10:03:49.955Z,5.83
2023-01-17T10:06:27.956Z,5.92
2023-01-17T10:09:12.885Z,5.95
2023-01-17T10:11:54.127Z,6.21
2023-01-17T10:14:52.826Z,6.35
2023-01-17T10:17:42.527Z,6.35
2023-01-17T10:20:34.914Z,6.39
2023-01-17T10:23:22.177Z,6.38
2023-01-17T10:25:52.471Z,6.50
2023-01-17T10:28:26.429Z,6.55
2023-01-17T10:31:04.273Z,6.55
2023-01-17T10:33:41.776Z,6.78
2023-01-17T10:36:18.446Z,6.74
2023-01-17T10:38:56.245Z,6.94
2023-01-17T10:41:35.171Z,6.86
2023-01-17T10:44:12.848Z,6.78
2023-01-17T10:46:49.542Z,6.94
2023-01-17T10:49:25.847Z,6.94
2023-01-17T10:52:06.115Z,6.99
2023-01-17T10:54:54.705Z,7.00
2023-01-17T10:57:26.113Z,6.95
2023-01-17T11:00:04.552Z,6.96
2023-01-17T11:02:45.414Z,6.97
2023-01-17T11:05:43.541Z,7.04
2023-01-17T11:08:22.942Z,6.99
2023-01-17T11:10:55.285Z,6.98
2023-01-17T11:13:27.374Z,6.72
2023-01-17T11:16:01.605Z,6.78
2023-01-17T11:18:32.939Z,6.99
2023-01-17T11:21:21.234Z,6.86
2023-01-17T11:23:54.852Z,7.04
2023-01-17T11:26:25.593Z,7.02
2023-01-17T11:28:56.011Z,7.23
2023-01-17T11:31:29.608Z,7.10
2023-01-17T11:34:18.741Z,7.21
2023-01-17T11:37:11.761Z,7.39
2023-01-17T11:39:42.498Z,7.39
2023-01-17T11:42:38.315Z,7.35
2023-01-17T11:45:26.666Z,7.36
2023-01-17T11:48:23.446Z,7.52
2023-01-17T11:50:59.747Z,7.49
2023-01-17T11:53:38.085Z,7.80
2023-01-17T11:56:09.975Z,7.71
2023-01-17T11:58:41.437Z,7.70
2023-01-17T12:01:38.099Z,7.59
2023-01-17T12:04:29.330Z,7.58
2023-01-17T12:07:10.969Z,7.59
2023-01-17T12:10:02.617Z,7.86
2023-01-17T12:13:01.830Z,7.62
2023-01-17T12:15:46.690Z,7.37
2023-01-17T12:18:40.562Z,7.75
2023-01-17T12:21:18.910Z,7.68
2023-01-17T12:24:15.150Z,7.67
2023-01-17T12:26:53.749Z,7.93
2023-01-17T12:29:45.919Z,7.77
2023-01-17T12:33:16.609Z,7.79
2023-01-17T12:35:48.242Z,7.65
2023-01-17T12:38:32.187Z,7.76
2023-01-17T12:41:09.812Z,7.94
2023-01-17T12:43:42.631Z,7.79
2023-01-17T12:46:21.433Z,8.25
2023-01-17T12:48:55.162Z,8.11
2023-01-17T12:51:33.270Z,8.03
2023-01-17T12:54:09.916Z,7.99
2023-01-17T12:56:46.433Z,7.92
2023-01-17T12:59:33.582Z,7.85
2023-01-17T13:02:17.393Z,7.70
2023-01-17T13:04:58.390Z,7.86
2023-01-17T13:07:38.992Z,7.92
2023-01-17T13:10:22.303Z,7.58
2023-01-17T13:12:51.633Z,7.57
2023-01-17T13:15:31.599Z,7.67
2023-01-17T13:18:05.246Z,7.67
2023-01-17T13:20:47.575Z,7.68
2023-01-17T13:23:29.607Z,7.63
2023-01-17T13:26:08.089Z,7.52
2023-01-17T13:29:08.748Z,7.63
2023-01-17T13:31:49.520Z,7.49
2023-01-17T13:34:36.389Z,7.59
2023-01-17T13:37:20.112Z,7.48
2023-01-17T13:40:24.779Z,7.52
2023-01-17T13:42:57.407Z,7.45
2023-01-17T13:45:32.103Z,7.46
2023-01-17T13:48:48.543Z,7.38
2023-01-17T13:51:19.888Z,7.33
2023-01-17T13:53:58.634Z,7.37
2023-01-17T13:56:33.003Z,7.60
2023-01-17T13:59:18.124Z,7.49
2023-01-17T14:02:35.230Z,7.32
2023-01-17T14:05:15.264Z,7.21
2023-01-17T14:07:48.652Z,7.38
2023-01-17T14:10:32.333Z,7.46
2023-01-17T14:13:10.328Z,7.33
2023-01-17T14:15:49.925Z,7.15
2023-01-17T14:18:38.536Z,7.24
2023-01-17T14:21:17.100Z,7.12
2023-01-17T14:24:18.408Z,7.19
2023-01-17T14:26:56.273Z,7.14
2023-01-17T14:30:00.311Z,7.10
2023-01-17T14:32:36.492Z,7.15
2023-01-17T14:35:26.953Z,7.16
2023-01-17T14:38:03.173Z,7.04
2023-01-17T14:40:37.911Z,7.03
2023-01-17T14:43:18.686Z,6.95
2023-01-17T14:45:57.453Z,6.79
2023-01-17T14:48:27.512Z,6.93
2023-01-17T14:51:02.976Z,6.96
2023-01-17T14:53:41.183Z,6.92
2023-01-17T14:56:18.053Z,6.88
2023-01-17T14:58:48.825Z,6.91
2023-01-17T15:01:21.255Z,6.86
2023-01-17T15:03:53.774Z,6.82
2023-01-17T15:06:35.212Z,6.81
2023-01-17T15:09:12.741Z,6.65
2023-01-17T15:11:53.164Z,6.62
2023-01-17T15:14:26.866Z,6.69
2023-01-17T15:16:56.363Z,6.74
2023-01-17T15:19:25.455Z,6.66
2023-01-17T15:21:55.473Z,6.75
2023-01-17T15:24:34.854Z,6.59
2023-01-17T15:27:06.576Z,6.42
2023-01-17T15:29:41.605Z,6.74
2023-01-17T15:32:21.242Z,6.66
2023-01-17T15:35:04.729Z,6.71
2023-01-17T15:37:43.403Z,6.44
2023-01-17T15:40:26.945Z,6.43
2023-01-17T15:43:09.444Z,6.43
2023-01-17T15:45:40.277Z,6.32
2023-01-17T15:48:38.521Z,6.29
2023-01-17T15:51:08.305Z,6.47
2023-01-17T15:53:47.878Z,6.50
2023-01-17T15:56:33.625Z,6.34
2023-01-17T15:59:24.305Z,6.47
2023-01-17T16:02:02.931Z,6.38
2023-01-17T16:04:37.348Z,6.44
2023-01-17T16:07:20.896Z,6.36
2023-01-17T16:09:55.092Z,6.33
2023-01-17T16:12:28.843Z,6.44
2023-01-17T16:15:11.977Z,6.69
2023-01-17T16:17:46.464Z,6.45
2023-01-17T16:20:29.967Z,6.43
2023-01-17T16:23:07.515Z,6.46
2023-01-17T16:25:37.024Z,6.29
2023-01-17T16:28:10.373Z,6.26
2023-01-17T16:30:39.496Z,6.28
2023-01-17T16:33:11.394Z,6.31
2023-01-17T16:35:40.434Z,6.43
2023-01-17T16:38:12.678Z,6.38
2023-01-17T16:40:52.938Z,6.36
2023-01-17T16:43:31.419Z,6.33
2023-01-17T16:46:04.709Z,6.53
2023-01-17T16:48:34.588Z,6.46
2023-01-17T16:51:12.440Z,6.32
2023-01-17T16:53:53.151Z,6.23
2023-01-17T16:56:24.632Z,6.33
2023-01-17T16:59:08.980Z,6.40
2023-01-17T17:01:39.450Z,6.00
2023-01-17T17:04:10.864Z,6.19
2023-01-17T17:06:52.524Z,6.24
2023-01-17T17:09:31.764Z,6.11
2023-01-17T17:12:00.700Z,6.20
2023-01-17T17:14:38.326Z,6.22
2023-01-17T17:17:11.069Z,6.22
2023-01-17T17:19:45.351Z,6.20
2023-01-17T17:22:14.095Z,6.12
2023-01-17T17:24:48.288Z,6.13
2023-01-17T17:27:30.680Z,6.15
2023-01-17T17:30:15.171Z,5.93
2023-01-17T17:32:55.710Z,6.02
2023-01-17T17:35:27.181Z,6.16
2023-01-17T17:38:09.657Z,6.12
2023-01-17T17:40:51.965Z,6.12
2023-01-17T17:43:29.693Z,6.48
2023-01-17T17:46:11.166Z,6.25
2023-01-17T17:48:48.617Z,6.03
2023-01-17T17:51:26.717Z,5.97
2023-01-17T17:54:03.300Z,6.10
2023-01-17T17:56:46.623Z,6.12
2023-01-17T17:59:26.000Z,6.21
2023-01-17T18:02:14.553Z,6.05
2023-01-17T18:04:56.587Z,6.08
2023-01-17T18:07:27.657Z,6.15
2023-01-17T18:09:59.440Z,6.05
2023-01-17T18:12:32.428Z,6.20
2023-01-17T18:15:03.867Z,6.28
2023-01-17T18:17:53.213Z,5.95
2023-01-17T18:20:52.028Z,5.99
2023-01-17T18:23:29.693Z,5.94
2023-01-17T18:26:03.968Z,5.92
2023-01-17T18:28:39.090Z,6.21
2023-01-17T18:31:12.328Z,6.11
2023-01-17T18:34:00.423Z,5.76
2023-01-17T18:36:43.701Z,5.74
2023-01-17T18:39:25.671Z,5.94
2023-01-17T18:42:05.660Z,5.81
2023-01-17T18:44:36.667Z,5.94
2023-01-17T18:47:07.189Z,5.96
2023-01-17T18:49:40.738Z,5.80
2023-01-17T18:52:19.013Z,5.69
2023-01-17T18:54:51.351Z,5.81
2023-01-17T18:57:26.920Z,5.83
2023-01-17T19:00:21.138Z,5.66
2023-01-17T19:03:05.628Z,5.73
2023-01-17T19:05:43.059Z,5.77
2023-01-17T19:08:29.215Z,5.74
2023-01-17T19:11:00.995Z,5.86
2023-01-17T19:13:34.416Z,5.92
2023-01-17T19:16:24.628Z,5.78
2023-01-17T19:18:56.296Z,5.80
2023-01-17T19:21:31.860Z,5.85
2023-01-17T19:24:11.495Z,5.84
2023-01-17T19:26:45.870Z,5.75
2023-01-17T19:29:20.382Z,5.77
2023-01-17T19:32:02.605Z,5.72
2023-01-17T19:34:41.604Z,5.68
2023-01-17T19:37:34.199Z,5.64
2023-01-17T19:40:24.331Z,5.69
2023-01-17T19:42:54.338Z,5.69
2023-01-17T19:45:27.864Z,5.65
2023-01-17T19:48:18.660Z,5.65
2023-01-17T19:53:40.737Z,5.64
2023-01-17T19:56:15.039Z,5.71
2023-01-17T19:58:47.568Z,5.67
2023-01-17T20:01:20.243Z,5.82
2023-01-17T20:03:57.937Z,5.76
2023-01-17T20:06:47.433Z,5.88
2023-01-17T20:09:38.361Z,5.82
2023-01-17T20:12:22.303Z,5.66
2023-01-17T20:15:00.719Z,5.89
2023-01-17T20:17:48.656Z,5.72
2023-01-17T20:20:36.893Z,5.63
2023-01-17T20:23:12.375Z,5.71
2023-01-17T20:26:11.733Z,5.67
2023-01-17T20:28:51.597Z,5.62
2023-01-17T20:31:23.869Z,5.70
2023-01-17T20:34:05.821Z,5.93
2023-01-17T20:36:38.425Z,5.70
2023-01-17T20:39:22.320Z,5.70
2023-01-17T20:42:08.026Z,5.70
2023-01-17T20:44:53.697Z,5.62
2023-01-17T20:47:32.207Z,5.58
2023-01-17T20:50:14.259Z,5.57
2023-01-17T20:52:56.366Z,5.53
2023-01-17T20:55:50.270Z,5.49
2023-01-17T20:58:39.510Z,5.60
2023-01-17T21:01:12.541Z,5.51
2023-01-17T21:03:50.003Z,5.42
2023-01-17T21:06:27.538Z,5.49
2023-01-17T21:09:04.723Z,5.48
2023-01-17T21:11:44.525Z,5.42
2023-01-17T21:14:18.873Z,5.42
2023-01-17T21:16:50.850Z,5.49
2023-01-17T21:19:21.464Z,5.50
2023-01-17T21:21:55.938Z,5.56
2023-01-17T21:24:32.487Z,5.50
2023-01-17T21:27:04.002Z,5.63
2023-01-17T21:29:46.558Z,5.34
2023-01-17T21:32:21.818Z,5.49
2023-01-17T21:34:53.111Z,5.24
2023-01-17T21:37:22.164Z,5.32
2023-01-17T21:39:54.927Z,5.33
2023-01-17T21:42:25.821Z,5.28
2023-01-17T21:45:03.411Z,5.20
2023-01-17T21:47:47.581Z,5.43
2023-01-17T21:50:32.475Z,5.14
2023-01-17T21:53:07.779Z,5.01
2023-01-17T21:55:54.578Z,5.20
2023-01-17T21:58:41.361Z,5.27
2023-01-17T22:01:21.682Z,5.23
2023-01-17T22:03:58.961Z,5.43
2023-01-17T22:06:31.060Z,5.16
2023-01-17T22:09:02.558Z,5.07
2023-01-17T22:11:40.125Z,5.11
2023-01-17T22:14:12.879Z,5.15
2023-01-17T22:16:46.856Z,5.19
2023-01-17T22:19:26.074Z,5.04
2023-01-17T22:21:55.350Z,5.10
2023-01-17T22:24:30.785Z,5.14
2023-01-17T22:27:02.919Z,5.09
2023-01-17T22:29:36.095Z,5.12
2023-01-17T22:32:09.858Z,5.14
2023-01-17T22:34:48.298Z,5.13
2023-01-17T22:37:18.656Z,5.18
2023-01-17T22:39:49.771Z,5.12
2023-01-17T22:42:24.900Z,4.85
2023-01-17T22:44:55.796Z,5.04
2023-01-17T22:47:42.675Z,5.02
2023-01-17T22:50:12.322Z,5.09
2023-01-17T22:52:49.588Z,5.04
2023-01-17T22:55:22.403Z,5.20
2023-01-17T22:57:53.555Z,4.96
2023-01-17T23:00:27.473Z,4.90
2023-01-17T23:03:06.339Z,4.94
2023-01-17T23:05:35.398Z,4.84
2023-01-17T23:08:13.204Z,4.87
2023-01-17T23:11:03.680Z,5.07
2023-01-17T23:13:35.904Z,5.02
2023-01-17T23:16:28.445Z,5.04
2023-01-17T23:19:22.597Z,5.03
2023-01-17T23:22:11.890Z,4.95
2023-01-17T23:24:44.119Z,4.84
2023-01-17T23:27:34.454Z,4.74
2023-01-17T23:30:04.632Z,4.72
2023-01-17T23:32:35.644Z,5.00
2023-01-17T23:35:23.433Z,4.83
2023-01-17T23:38:14.017Z,4.75
2023-01-17T23:41:04.451Z,4.82
2023-01-17T23:43:32.338Z,4.60
2023-01-17T23:46:07.819Z,4.70
2023-01-17T23:48:36.313Z,4.74
2023-01-17T23:51:08.648Z,4.67
2023-01-17T23:53:41.187Z,4.61
2023-01-17T23:56:17.393Z,4.61
2023-01-17T23:58:46.857Z,4.58
